createdAt,value
2017-09-07T00:00:42.225Z,3.80
2017-09-07T00:03:08.849Z,3.72
2017-09-07T00:05:35.459Z,3.62
2017-09-07T00:08:02.057Z,3.80
2017-09-07T00:10:28.681Z,3.80
2017-09-07T00:12:55.277Z,3.72
2017-09-07T00:15:21.924Z,3.10
2017-09-07T00:17:48.566Z,3.67
2017-09-07T00:20:15.166Z,3.65
2017-09-07T00:22:41.765Z,3.40
2017-09-07T00:25:08.485Z,3.40
2017-09-07T00:27:35.081Z,3.33
2017-09-07T00:30:01.677Z,3.35
2017-09-07T00:32:28.297Z,3.50
2017-09-07T00:34:54.910Z,2.90
2017-09-07T00:37:21.510Z,3.67
2017-09-07T00:39:48.130Z,3.35
2017-09-07T00:42:14.739Z,3.85
2017-09-07T00:44:41.350Z,3.00
2017-09-07T00:47:07.973Z,3.78
2017-09-07T00:49:34.671Z,3.50
2017-09-07T00:52:01.309Z,3.28
2017-09-07T00:54:27.937Z,3.55
2017-09-07T00:56:54.586Z,4.05
2017-09-07T00:59:21.223Z,4.15
2017-09-07T01:01:47.866Z,3.72
2017-09-07T01:04:14.480Z,3.90
2017-09-07T01:06:41.133Z,3.90
2017-09-07T01:09:07.782Z,3.60
2017-09-07T01:11:34.382Z,3.90
2017-09-07T01:14:00.982Z,4.35
2017-09-07T01:16:27.697Z,4.05
2017-09-07T01:18:54.338Z,5.10
2017-09-07T01:21:20.938Z,3.78
2017-09-07T01:23:47.570Z,4.28
2017-09-07T01:26:14.169Z,4.90
2017-09-07T01:28:40.790Z,4.70
2017-09-07T01:31:07.430Z,4.37
2017-09-07T01:33:34.034Z,3.80
2017-09-07T01:36:00.638Z,4.40
2017-09-07T01:38:27.350Z,3.70
2017-09-07T01:40:53.958Z,4.10
2017-09-07T01:43:21.217Z,3.92
2017-09-07T01:45:47.878Z,4.00
2017-09-07T01:48:20.269Z,4.15
2017-09-07T01:50:47.450Z,4.03
2017-09-07T01:53:14.134Z,3.87
2017-09-07T01:55:40.738Z,3.83
2017-09-07T01:58:07.366Z,4.22
2017-09-07T02:00:34.065Z,3.83
2017-09-07T02:03:00.706Z,4.32
2017-09-07T02:05:27.330Z,5.12
2017-09-07T02:07:53.929Z,4.15
2017-09-07T02:10:20.528Z,4.00
2017-09-07T02:12:47.161Z,4.82
2017-09-07T02:15:13.769Z,4.20
2017-09-07T02:17:40.378Z,4.95
2017-09-07T02:20:06.998Z,4.55
2017-09-07T02:22:33.710Z,4.35
2017-09-07T02:25:00.350Z,4.28
2017-09-07T02:27:26.974Z,4.37
2017-09-07T02:29:53.574Z,4.07
2017-09-07T02:32:20.279Z,4.20
2017-09-07T02:34:47.019Z,4.15
2017-09-07T02:37:13.649Z,3.83
2017-09-07T02:39:40.287Z,4.07
2017-09-07T02:42:06.906Z,3.80
2017-09-07T02:44:33.507Z,3.75
2017-09-07T02:47:00.190Z,5.18
2017-09-07T02:49:26.789Z,4.80
2017-09-07T02:51:53.479Z,4.10
2017-09-07T02:54:20.099Z,4.55
2017-09-07T02:56:46.757Z,4.30
2017-09-07T02:59:13.391Z,3.97
2017-09-07T03:01:39.987Z,4.30
2017-09-07T03:04:06.682Z,3.78
2017-09-07T03:06:33.301Z,4.70
2017-09-07T03:08:59.963Z,3.45
2017-09-07T03:11:26.593Z,4.43
2017-09-07T03:13:53.198Z,4.32
2017-09-07T03:16:19.802Z,4.50
2017-09-07T03:18:46.408Z,4.35
2017-09-07T03:21:13.018Z,3.10
2017-09-07T03:23:39.647Z,4.00
2017-09-07T03:26:06.325Z,4.30
2017-09-07T03:28:32.938Z,3.85
2017-09-07T03:30:59.553Z,4.55
2017-09-07T03:33:26.149Z,4.00
2017-09-07T03:35:52.880Z,4.65
2017-09-07T03:38:19.485Z,5.22
2017-09-07T03:40:46.161Z,4.07
2017-09-07T03:43:12.797Z,4.18
2017-09-07T03:45:39.402Z,4.18
2017-09-07T03:48:06.021Z,3.45
2017-09-07T03:50:32.718Z,3.45
2017-09-07T03:52:59.318Z,3.58
2017-09-07T03:55:25.933Z,3.90
2017-09-07T03:57:52.629Z,5.03
2017-09-07T04:00:19.377Z,4.18
2017-09-07T04:02:45.980Z,4.30
2017-09-07T04:05:12.578Z,4.60
2017-09-07T04:07:39.258Z,4.50
2017-09-07T04:10:05.858Z,5.13
2017-09-07T04:12:32.477Z,4.87
2017-09-07T04:14:59.077Z,4.40
2017-09-07T04:17:25.751Z,4.70
2017-09-07T04:19:52.386Z,5.07
2017-09-07T04:22:18.993Z,5.65
2017-09-07T04:24:45.622Z,5.22
2017-09-07T04:27:12.228Z,4.80
2017-09-07T04:29:38.938Z,5.18
2017-09-07T04:32:05.582Z,5.20
2017-09-07T04:34:32.186Z,5.07
2017-09-07T04:36:58.859Z,5.60
2017-09-07T04:39:25.462Z,6.05
2017-09-07T04:41:52.137Z,6.22
2017-09-07T04:44:18.753Z,5.65
2017-09-07T04:46:45.369Z,5.97
2017-09-07T04:49:12.100Z,5.30
2017-09-07T04:51:38.698Z,5.05
2017-09-07T04:54:05.302Z,6.18
2017-09-07T04:56:31.969Z,6.70
2017-09-07T04:58:58.613Z,5.70
2017-09-07T05:01:25.239Z,5.35
2017-09-07T05:03:51.845Z,5.90
2017-09-07T05:06:18.449Z,5.93
2017-09-07T05:08:45.076Z,5.20
2017-09-07T05:11:11.705Z,4.82
2017-09-07T05:13:38.333Z,5.40
2017-09-07T05:16:04.941Z,6.10
2017-09-07T05:18:31.549Z,6.20
2017-09-07T05:20:58.262Z,5.35
2017-09-07T05:23:24.868Z,5.20
2017-09-07T05:25:51.539Z,4.90
2017-09-07T05:28:18.161Z,5.05
2017-09-07T05:30:44.765Z,4.85
2017-09-07T05:33:11.391Z,6.05
2017-09-07T05:35:38.102Z,5.90
2017-09-07T05:38:04.732Z,5.45
2017-09-07T05:40:31.362Z,6.37
2017-09-07T05:42:57.977Z,5.65
2017-09-07T05:45:24.593Z,5.72
2017-09-07T05:47:51.295Z,5.43
2017-09-07T05:50:17.896Z,4.20
2017-09-07T05:52:44.506Z,6.50
2017-09-07T05:55:11.127Z,5.15
2017-09-07T05:57:37.748Z,4.97
2017-09-07T06:00:04.366Z,5.60
2017-09-07T06:02:30.970Z,5.37
2017-09-07T06:04:57.578Z,5.03
2017-09-07T06:07:24.197Z,5.00
2017-09-07T06:09:50.797Z,5.47
2017-09-07T06:12:17.476Z,5.87
2017-09-07T06:14:44.116Z,5.65
2017-09-07T06:17:10.717Z,5.00
2017-09-07T06:19:37.338Z,5.93
2017-09-07T06:22:03.946Z,6.57
2017-09-07T06:24:30.570Z,5.85
2017-09-07T06:26:57.175Z,6.80
2017-09-07T06:29:23.781Z,5.30
2017-09-07T06:31:50.393Z,4.90
2017-09-07T06:34:16.993Z,6.12
2017-09-07T06:36:43.661Z,4.80
2017-09-07T06:39:10.266Z,5.90
2017-09-07T06:41:36.933Z,5.60
2017-09-07T06:44:03.558Z,6.47
2017-09-07T06:46:30.263Z,5.12
2017-09-07T06:48:56.888Z,6.18
2017-09-07T06:51:23.495Z,6.00
2017-09-07T06:53:50.136Z,5.53
2017-09-07T06:56:16.774Z,5.18
2017-09-07T06:58:43.385Z,5.25
2017-09-07T07:01:10.018Z,4.65
2017-09-07T07:03:36.625Z,5.20
2017-09-07T07:06:03.229Z,5.87
2017-09-07T07:08:29.846Z,5.97
2017-09-07T07:10:56.451Z,5.60
2017-09-07T07:13:23.077Z,5.65
2017-09-07T07:15:49.792Z,5.60
2017-09-07T07:18:16.398Z,5.62
2017-09-07T07:20:43.063Z,4.68
2017-09-07T07:23:09.746Z,5.10
2017-09-07T07:25:36.454Z,5.50
2017-09-07T07:28:03.051Z,5.05
2017-09-07T07:30:29.658Z,5.30
2017-09-07T07:32:56.360Z,4.25
2017-09-07T07:35:23.001Z,4.85
2017-09-07T07:37:49.786Z,4.32
2017-09-07T07:40:16.478Z,5.45
2017-09-07T07:42:43.117Z,6.53
2017-09-07T07:45:09.746Z,4.95
2017-09-07T07:47:36.346Z,4.72
2017-09-07T07:50:02.973Z,6.55
2017-09-07T07:52:29.679Z,6.93
2017-09-07T07:54:56.314Z,5.55
2017-09-07T07:57:22.933Z,6.12
2017-09-07T07:59:49.544Z,6.45
2017-09-07T08:02:16.165Z,5.35
2017-09-07T08:04:42.770Z,4.65
2017-09-07T08:07:09.378Z,5.30
2017-09-07T08:09:36.050Z,4.50
2017-09-07T08:12:02.653Z,5.00
2017-09-07T08:14:29.286Z,4.55
2017-09-07T08:16:55.898Z,5.37
2017-09-07T08:19:22.502Z,4.95
2017-09-07T08:21:49.141Z,5.75
2017-09-07T08:24:15.742Z,4.43
2017-09-07T08:26:42.418Z,6.78
2017-09-07T08:29:09.088Z,5.47
2017-09-07T08:31:35.694Z,5.05
2017-09-07T08:34:02.313Z,5.30
2017-09-07T08:36:28.923Z,5.03
2017-09-07T08:38:55.614Z,5.07
2017-09-07T08:41:22.222Z,5.50
2017-09-07T08:43:48.938Z,5.05
2017-09-07T08:46:15.553Z,6.47
2017-09-07T08:48:42.158Z,5.28
2017-09-07T08:51:08.810Z,5.30
2017-09-07T08:53:35.450Z,6.12
2017-09-07T08:56:02.059Z,6.20
2017-09-07T08:58:28.733Z,6.25
2017-09-07T09:00:55.343Z,5.90
2017-09-07T09:03:21.971Z,5.50
2017-09-07T09:05:48.583Z,6.72
2017-09-07T09:08:15.186Z,5.70
2017-09-07T09:10:41.802Z,6.28
2017-09-07T09:13:08.409Z,5.28
2017-09-07T09:15:35.102Z,7.35
2017-09-07T09:18:01.703Z,5.53
2017-09-07T09:20:28.319Z,6.32
2017-09-07T09:22:55.013Z,6.05
2017-09-07T09:25:21.614Z,6.22
2017-09-07T09:27:48.298Z,5.05
2017-09-07T09:30:14.898Z,5.72
2017-09-07T09:32:41.498Z,5.30
2017-09-07T09:35:08.119Z,4.50
2017-09-07T09:37:34.746Z,5.40
2017-09-07T09:40:01.374Z,6.87
2017-09-07T09:42:27.988Z,5.72
2017-09-07T09:44:54.667Z,4.78
2017-09-07T09:47:21.281Z,5.12
2017-09-07T09:49:47.889Z,5.72
2017-09-07T09:52:14.509Z,6.60
2017-09-07T09:54:41.230Z,5.43
2017-09-07T09:57:07.831Z,5.82
2017-09-07T09:59:34.451Z,6.22
2017-09-07T10:02:01.182Z,5.57
2017-09-07T10:04:27.926Z,5.22
2017-09-07T10:06:54.622Z,6.47
2017-09-07T10:09:21.227Z,4.72
2017-09-07T10:11:47.850Z,5.55
2017-09-07T10:14:14.454Z,5.75
2017-09-07T10:16:41.075Z,5.00
2017-09-07T10:19:07.713Z,4.72
2017-09-07T10:21:34.318Z,5.87
2017-09-07T10:24:01.039Z,5.25
2017-09-07T10:26:27.736Z,5.60
2017-09-07T10:28:54.419Z,8.32
2017-09-07T10:31:21.024Z,5.75
2017-09-07T10:33:47.634Z,5.93
2017-09-07T10:36:14.254Z,5.50
2017-09-07T10:38:40.974Z,6.20
2017-09-07T10:41:07.599Z,5.05
2017-09-07T10:43:34.210Z,4.95
2017-09-07T10:46:00.813Z,6.00
2017-09-07T10:48:27.434Z,5.82
2017-09-07T10:50:54.041Z,5.25
2017-09-07T10:53:20.766Z,6.12
2017-09-07T10:55:47.366Z,6.65
2017-09-07T10:58:13.966Z,5.10
2017-09-07T11:00:40.587Z,6.65
2017-09-07T11:03:07.197Z,5.87
2017-09-07T11:05:33.901Z,5.62
2017-09-07T11:08:00.598Z,5.25
2017-09-07T11:10:27.203Z,6.20
2017-09-07T11:12:53.822Z,5.85
2017-09-07T11:15:20.430Z,5.60
2017-09-07T11:17:47.037Z,6.93
2017-09-07T11:20:13.657Z,6.18
2017-09-07T11:22:40.274Z,8.63
2017-09-07T11:25:06.887Z,8.57
2017-09-07T11:27:33.549Z,8.73
2017-09-07T11:30:00.255Z,8.77
2017-09-07T11:32:26.858Z,6.82
2017-09-07T11:34:53.542Z,8.38
2017-09-07T11:37:20.161Z,8.50
2017-09-07T11:39:46.793Z,10.00
2017-09-07T11:42:13.394Z,7.25
2017-09-07T11:44:39.993Z,7.57
2017-09-07T11:47:06.713Z,6.93
2017-09-07T11:49:33.325Z,5.80
2017-09-07T11:52:00.044Z,10.10
2017-09-07T11:54:26.671Z,15.55
2017-09-07T11:56:53.424Z,12.00
2017-09-07T11:59:20.038Z,8.27
2017-09-07T12:01:46.682Z,5.65
2017-09-07T12:04:13.305Z,7.37
2017-09-07T12:06:40.186Z,6.10
2017-09-07T12:09:06.822Z,13.00
2017-09-07T12:11:33.772Z,5.87
2017-09-07T12:14:00.479Z,6.10
2017-09-07T12:16:27.107Z,5.28
2017-09-07T12:18:53.728Z,5.78
2017-09-07T12:21:20.382Z,5.68
2017-09-07T12:23:47.008Z,5.18
2017-09-07T12:26:13.708Z,4.30
2017-09-07T12:28:40.404Z,6.47
2017-09-07T12:31:07.041Z,5.43
2017-09-07T12:33:33.651Z,4.55
2017-09-07T12:36:00.366Z,4.57
2017-09-07T12:38:27.062Z,7.28
2017-09-07T12:40:53.738Z,4.68
2017-09-07T12:43:20.487Z,5.50
2017-09-07T12:45:47.098Z,4.68
2017-09-07T12:48:13.821Z,5.15
2017-09-07T12:50:40.421Z,5.57
2017-09-07T12:53:07.050Z,4.55
2017-09-07T12:55:33.738Z,4.25
2017-09-07T12:58:00.343Z,4.75
2017-09-07T13:00:26.959Z,4.57
2017-09-07T13:02:53.658Z,4.95
2017-09-07T13:05:20.294Z,3.72
2017-09-07T13:07:46.914Z,4.80
2017-09-07T13:10:13.521Z,4.82
2017-09-07T13:12:40.142Z,6.90
2017-09-07T13:15:06.749Z,4.53
2017-09-07T13:17:33.435Z,3.92
2017-09-07T13:20:00.144Z,4.53
2017-09-07T13:22:26.742Z,5.03
2017-09-07T13:24:53.414Z,5.25
2017-09-07T13:27:20.055Z,4.68
2017-09-07T13:29:46.685Z,4.15
2017-09-07T13:32:13.326Z,4.18
2017-09-07T13:34:39.929Z,8.88
2017-09-07T13:37:06.600Z,4.32
2017-09-07T13:39:33.241Z,5.55
2017-09-07T13:41:59.987Z,6.15
2017-09-07T13:44:26.585Z,5.12
2017-09-07T13:46:53.185Z,5.28
2017-09-07T13:49:19.810Z,11.00
2017-09-07T13:51:46.437Z,6.15
2017-09-07T13:54:13.062Z,6.60
2017-09-07T13:56:39.674Z,8.82
2017-09-07T13:59:06.369Z,5.78
2017-09-07T14:01:33.098Z,5.65
2017-09-07T14:03:59.701Z,5.18
2017-09-07T14:06:26.420Z,5.40
2017-09-07T14:08:53.120Z,5.40
2017-09-07T14:11:19.758Z,5.07
2017-09-07T14:13:46.398Z,5.60
2017-09-07T14:16:13.008Z,4.90
2017-09-07T14:18:39.634Z,5.20
2017-09-07T14:21:06.238Z,6.30
2017-09-07T14:23:32.950Z,4.90
2017-09-07T14:25:59.569Z,5.15
2017-09-07T14:28:26.273Z,4.70
2017-09-07T14:30:52.894Z,4.30
2017-09-07T14:33:19.610Z,4.45
2017-09-07T14:35:46.218Z,5.35
2017-09-07T14:38:12.886Z,6.12
2017-09-07T14:40:39.526Z,5.40
2017-09-07T14:43:06.149Z,5.95
2017-09-07T14:45:32.752Z,6.62
2017-09-07T14:47:59.355Z,5.15
2017-09-07T14:50:25.977Z,5.07
2017-09-07T14:52:52.617Z,5.20
2017-09-07T14:55:19.362Z,5.10
2017-09-07T14:57:45.979Z,4.15
2017-09-07T15:00:12.591Z,5.20
2017-09-07T15:02:39.277Z,5.55
2017-09-07T15:05:05.881Z,4.05
2017-09-07T15:07:32.561Z,5.75
2017-09-07T15:09:59.162Z,4.40
2017-09-07T15:12:25.834Z,4.65
2017-09-07T15:14:52.453Z,4.15
2017-09-07T15:17:19.058Z,4.25
2017-09-07T15:19:45.686Z,4.53
2017-09-07T15:22:12.290Z,3.75
2017-09-07T15:24:38.904Z,3.92
2017-09-07T15:27:05.534Z,4.80
2017-09-07T15:29:32.201Z,5.37
2017-09-07T15:31:58.834Z,5.43
2017-09-07T15:34:25.482Z,4.70
2017-09-07T15:36:52.085Z,8.10
2017-09-07T15:39:18.702Z,3.90
2017-09-07T15:41:45.310Z,4.12
2017-09-07T15:44:11.938Z,5.05
2017-09-07T15:46:38.541Z,5.22
2017-09-07T15:49:05.146Z,6.25
2017-09-07T15:51:31.901Z,4.78
2017-09-07T15:53:58.593Z,4.55
2017-09-07T15:56:25.218Z,4.87
2017-09-07T15:58:51.822Z,4.18
2017-09-07T16:01:18.509Z,5.20
2017-09-07T16:03:45.136Z,4.22
2017-09-07T16:06:11.733Z,4.65
2017-09-07T16:08:38.371Z,4.30
2017-09-07T16:11:04.982Z,4.05
2017-09-07T16:13:31.610Z,4.85
2017-09-07T16:15:58.255Z,5.40
2017-09-07T16:18:24.858Z,4.05
2017-09-07T16:20:51.491Z,5.05
2017-09-07T16:23:18.166Z,5.00
2017-09-07T16:25:44.769Z,4.85
2017-09-07T16:28:11.442Z,6.10
2017-09-07T16:30:38.045Z,5.15
2017-09-07T16:33:04.724Z,4.68
2017-09-07T16:35:31.334Z,4.35
2017-09-07T16:37:58.000Z,4.25
2017-09-07T16:40:24.622Z,5.30
2017-09-07T16:42:51.227Z,5.28
2017-09-07T16:45:17.855Z,5.68
2017-09-07T16:47:44.453Z,4.03
2017-09-07T16:50:11.090Z,5.85
2017-09-07T16:52:37.703Z,5.80
2017-09-07T16:55:04.310Z,4.97
2017-09-07T16:57:30.910Z,5.47
2017-09-07T16:59:57.651Z,6.00
2017-09-07T17:02:24.291Z,5.35
2017-09-07T17:04:50.926Z,5.15
2017-09-07T17:07:17.550Z,4.97
2017-09-07T17:09:44.163Z,6.55
2017-09-07T17:12:10.767Z,4.57
2017-09-07T17:14:37.390Z,5.78
2017-09-07T17:17:04.014Z,5.95
2017-09-07T17:19:30.702Z,5.78
2017-09-07T17:21:57.318Z,5.30
2017-09-07T17:24:23.931Z,6.25
2017-09-07T17:26:50.561Z,8.38
2017-09-07T17:29:17.169Z,4.82
2017-09-07T17:31:43.860Z,6.80
2017-09-07T17:34:10.489Z,7.18
2017-09-07T17:36:37.097Z,6.95
2017-09-07T17:39:03.730Z,7.00
2017-09-07T17:41:30.410Z,6.78
2017-09-07T17:43:57.056Z,6.20
2017-09-07T17:46:23.650Z,6.70
2017-09-07T17:48:50.323Z,6.95
2017-09-07T17:51:16.946Z,6.95
2017-09-07T17:53:43.549Z,8.27
2017-09-07T17:56:10.155Z,6.53
2017-09-07T17:58:36.881Z,6.00
2017-09-07T18:01:03.517Z,9.35
2017-09-07T18:03:30.142Z,7.60
2017-09-07T18:05:56.754Z,7.20
2017-09-07T18:08:23.428Z,7.78
2017-09-07T18:10:50.049Z,6.93
2017-09-07T18:13:16.655Z,7.05
2017-09-07T18:15:43.287Z,7.85
2017-09-07T18:18:09.990Z,7.80
2017-09-07T18:20:36.597Z,8.40
2017-09-07T18:23:03.226Z,7.72
2017-09-07T18:25:29.830Z,8.10
2017-09-07T18:27:56.453Z,7.82
2017-09-07T18:30:23.064Z,7.87
2017-09-07T18:32:49.666Z,6.87
2017-09-07T18:35:16.290Z,7.62
2017-09-07T18:37:42.998Z,6.97
2017-09-07T18:40:09.638Z,6.90
2017-09-07T18:42:36.279Z,8.40
2017-09-07T18:45:02.924Z,7.07
2017-09-07T18:47:29.545Z,7.72
2017-09-07T18:49:56.160Z,7.50
2017-09-07T18:52:22.838Z,7.57
2017-09-07T18:54:49.443Z,6.72
2017-09-07T18:57:16.055Z,8.25
2017-09-07T18:59:42.765Z,6.50
2017-09-07T19:02:09.394Z,13.25
2017-09-07T19:04:36.034Z,6.72
2017-09-07T19:07:02.670Z,7.75
2017-09-07T19:09:29.314Z,6.95
2017-09-07T19:11:55.940Z,7.93
2017-09-07T19:14:22.555Z,8.73
2017-09-07T19:16:49.188Z,8.25
2017-09-07T19:19:15.792Z,8.05
2017-09-07T19:21:42.510Z,7.00
2017-09-07T19:24:09.129Z,7.12
2017-09-07T19:26:35.741Z,9.02
2017-09-07T19:29:02.423Z,7.90
2017-09-07T19:31:29.062Z,7.45
2017-09-07T19:33:55.675Z,6.80
2017-09-07T19:36:22.337Z,7.55
2017-09-07T19:38:49.027Z,7.68
2017-09-07T19:41:15.722Z,7.20
2017-09-07T19:43:42.330Z,7.80
2017-09-07T19:46:08.929Z,8.35
2017-09-07T19:48:35.555Z,7.35
2017-09-07T19:51:02.161Z,8.25
2017-09-07T19:53:28.781Z,8.23
2017-09-07T19:55:55.450Z,7.03
2017-09-07T19:58:22.053Z,8.23
2017-09-07T20:00:48.674Z,7.55
2017-09-07T20:03:15.371Z,7.75
2017-09-07T20:05:41.994Z,7.57
2017-09-07T20:08:34.574Z,8.10
2017-09-07T20:11:01.197Z,7.40
2017-09-07T20:13:27.811Z,7.40
2017-09-07T20:15:54.412Z,8.15
2017-09-07T20:18:21.026Z,8.10
2017-09-07T20:20:47.629Z,8.80
2017-09-07T20:23:14.254Z,8.50
2017-09-07T20:25:40.925Z,8.10
2017-09-07T20:28:07.566Z,7.70
2017-09-07T20:30:34.189Z,7.50
2017-09-07T20:33:00.790Z,9.40
2017-09-07T20:35:27.423Z,7.93
2017-09-07T20:37:54.107Z,7.85
2017-09-07T20:40:20.718Z,8.32
2017-09-07T20:42:47.342Z,12.77
2017-09-07T20:45:13.950Z,10.23
2017-09-07T20:47:40.674Z,7.50
2017-09-07T20:50:07.318Z,10.38
2017-09-07T20:52:33.918Z,8.95
2017-09-07T20:55:00.546Z,8.80
2017-09-07T20:57:27.234Z,7.43
2017-09-07T20:59:53.869Z,8.57
2017-09-07T21:02:20.514Z,7.75
2017-09-07T21:04:47.151Z,7.20
2017-09-07T21:07:13.787Z,9.93
2017-09-07T21:09:40.427Z,7.30
2017-09-07T21:12:07.058Z,8.48
2017-09-07T21:14:33.670Z,8.82
2017-09-07T21:17:00.291Z,9.60
2017-09-07T21:19:26.986Z,8.15
2017-09-07T21:21:53.585Z,8.90
2017-09-07T21:24:20.224Z,8.27
2017-09-07T21:26:46.906Z,10.35
2017-09-07T21:29:13.523Z,9.57
2017-09-07T21:31:40.149Z,7.90
2017-09-07T21:34:06.822Z,9.90
2017-09-07T21:36:33.447Z,8.05
2017-09-07T21:39:00.097Z,9.93
2017-09-07T21:41:26.698Z,9.43
2017-09-07T21:43:53.332Z,9.50
2017-09-07T21:46:20.015Z,8.75
2017-09-07T21:48:46.641Z,8.85
2017-09-07T21:51:13.258Z,8.80
2017-09-07T21:53:39.861Z,8.73
2017-09-07T21:56:06.482Z,9.05
2017-09-07T21:58:33.091Z,8.77
2017-09-07T22:00:59.716Z,9.27
2017-09-07T22:03:26.397Z,9.65
2017-09-07T22:05:53.003Z,9.20
2017-09-07T22:08:19.631Z,8.88
2017-09-07T22:10:46.306Z,9.45
2017-09-07T22:13:12.934Z,9.10
2017-09-07T22:15:39.582Z,7.75
2017-09-07T22:18:06.183Z,8.43
2017-09-07T22:20:32.806Z,10.13
2017-09-07T22:22:59.499Z,8.50
2017-09-07T22:25:26.121Z,8.75
2017-09-07T22:27:52.726Z,8.43
2017-09-07T22:30:19.338Z,9.75
2017-09-07T22:32:45.950Z,9.38
2017-09-07T22:35:12.558Z,8.80
2017-09-07T22:37:39.181Z,9.05
2017-09-07T22:40:05.782Z,9.38
2017-09-07T22:42:32.406Z,8.70
2017-09-07T22:44:59.035Z,9.15
2017-09-07T22:47:25.642Z,9.82
2017-09-07T22:49:52.269Z,8.65
2017-09-07T22:52:18.873Z,9.27
2017-09-07T22:54:45.606Z,7.78
2017-09-07T22:57:12.342Z,9.75
2017-09-07T22:59:38.947Z,8.52
2017-09-07T23:02:05.615Z,9.52
2017-09-07T23:04:32.239Z,8.00
2017-09-07T23:06:58.893Z,8.60
2017-09-07T23:09:25.511Z,9.57
2017-09-07T23:11:52.114Z,9.55
2017-09-07T23:14:18.738Z,9.15
2017-09-07T23:16:45.453Z,8.93
2017-09-07T23:19:12.090Z,9.32
2017-09-07T23:21:38.722Z,9.23
2017-09-07T23:24:05.332Z,10.10
2017-09-07T23:26:31.953Z,7.82
2017-09-07T23:28:58.657Z,9.75
2017-09-07T23:31:25.273Z,9.55
2017-09-07T23:33:51.894Z,9.82
2017-09-07T23:36:18.497Z,9.38
2017-09-07T23:38:45.098Z,9.10
2017-09-07T23:41:11.735Z,10.00
2017-09-07T23:43:38.337Z,9.40
2017-09-07T23:46:05.027Z,9.18
2017-09-07T23:48:31.658Z,8.70
2017-09-07T23:50:58.298Z,8.68
2017-09-07T23:53:24.898Z,9.00
2017-09-07T23:55:51.518Z,8.10
2017-09-07T23:58:18.118Z,8.70
